Stanhope, New Jersey
Current Conditions -  °F | °C
As of 2:45 PM on Thursday 23 Oct 2014 (Local Time) from KMMU Reporting Station
Overcast Overcast  
Wind Chill: 55°   Ceiling: 2900
Heat Index: 55°   Visibility: 10mi
Dew Point: 50°   Wind: 12mph
Humidity: 82%   Direction: 350°N
Pressure: 29.73"   Gusts: 23mph
Location:  40.9°N, 74.71°W
Report Text: KMMU 231845Z 35010G20KT 10SM SCT021 OVC029 13/10 A2973
Loading
Personal Weather Stations






























Interactive Weather Map New forecast layout! Learn more

10-Day Weather Forecast

Advertisements
Track Severe Weather on mobile